KMWH

Grant Co International Airport

Moses Lake, Washington, USA
METAR KMWH 141152Z AUTO 00000KT 10SM CLR 02/M03 A2998 RMK AO2 SLP160 T00221033 10050 20011 58007
Observed Flight Rules
Dec-14 @ 11:52 UTC (28 minutes ago) Visual Flight Rules
Visibility Clouds
10 miles
  • Clear skies
Temperatures Readings
Current 2°C / 36°F
Dewpoint -3°C / 27°F
Humidity 70%
Altimeter 29.98" Hg
Pressure 1016 hPa
Elevation 362
METAR KMWH 141152Z AUTO 00000KT 10SM CLR 02/M03 A2998 RMK AO2 SLP160 T00221033 10050 20011 58007
Observed Flight Rules
Dec-14 @ 11:52 UTC
(28 minutes ago)
VFR
Clouds
  • Clear skies
Temperature Dewpoint
2°C / 36°F -3°C / 27°F
Humidity Altimeter Pressure
70% 29.98" Hg 1016 hPa